Time;durP1;ratioP1;P1;durP2;ratioP2;P2;SDS_P1;SDS_P2;PMS_P1;PMS_P2;Temp;Humidity;BMP_temperature;BMP_pressure;BME280_temperature;BME280_humidity;BME280_pressure;Samples;Min_cycle;Max_cycle;Signal;HPM_P1;HPM_P2
2023/12/23 00:00:37;;;;;;;12.20;2.35;;;6.80;99.90;;;;;;4980699;28;20391;-75
2023/12/23 00:03:03;;;;;;;18.33;3.22;;;6.80;99.90;;;;;;4975423;28;20055;-75
2023/12/23 00:05:29;;;;;;;10.48;1.98;;;6.70;99.90;;;;;;4975343;28;20050;-75
2023/12/23 00:07:54;;;;;;;12.25;2.35;;;6.70;99.90;;;;;;4975596;28;20038;-75
2023/12/23 00:10:20;;;;;;;10.25;2.00;;;6.70;99.90;;;;;;4975225;28;20570;-75
2023/12/23 00:12:46;;;;;;;7.95;1.23;;;6.70;99.90;;;;;;4976384;28;20070;-75
2023/12/23 00:15:11;;;;;;;9.32;1.90;;;6.70;99.90;;;;;;4975461;28;20050;-76
2023/12/23 00:17:37;;;;;;;13.20;2.03;;;6.70;99.90;;;;;;4976349;28;20546;-75
2023/12/23 00:20:03;;;;;;;16.58;2.33;;;6.70;99.90;;;;;;4975119;28;20050;-75
2023/12/23 00:22:28;;;;;;;13.13;1.50;;;6.70;99.90;;;;;;4976547;28;20382;-75
2023/12/23 00:24:54;;;;;;;13.90;1.77;;;6.70;99.90;;;;;;4975077;28;20047;-76
2023/12/23 00:27:20;;;;;;;13.68;1.75;;;6.70;99.90;;;;;;4975251;28;20047;-75
2023/12/23 00:29:45;;;;;;;15.55;2.17;;;6.70;99.90;;;;;;4974977;28;20043;-75
2023/12/23 05:02:03;;;;;;;2.00;0.80;;;6.20;99.90;;;;;;5253907;23;20047;-79
2023/12/23 05:04:29;;;;;;;2.53;1.00;;;6.30;99.90;;;;;;4975336;28;20049;-78
2023/12/23 05:06:57;;;;;;;3.10;1.15;;;6.50;99.90;;;;;;4973525;28;20402;-79
2023/12/23 05:09:22;;;;;;;2.92;1.17;;;6.60;99.90;;;;;;4973743;28;20102;-78
2023/12/23 05:11:48;;;;;;;7.82;2.45;;;6.90;99.90;;;;;;4960729;28;20045;-80
2023/12/23 05:14:14;;;;;;;10.90;3.28;;;7.10;99.90;;;;;;4954116;29;20510;-78
2023/12/23 05:16:39;;;;;;;20.08;6.13;;;7.50;99.90;;;;;;4954319;29;20047;-77
2023/12/23 05:19:05;;;;;;;16.00;4.22;;;7.90;99.90;;;;;;4938130;29;20046;-78
2023/12/23 05:21:31;;;;;;;19.13;4.85;;;8.10;99.90;;;;;;4953931;28;20051;-79
2023/12/23 05:23:56;;;;;;;18.63;4.80;;;8.20;99.90;;;;;;4938346;29;20054;-75
2023/12/23 05:26:22;;;;;;;18.80;5.32;;;8.40;99.90;;;;;;4953870;29;20507;-77
2023/12/23 05:28:48;;;;;;;19.60;4.95;;;8.50;99.90;;;;;;4954202;29;20129;-78
2023/12/23 05:31:14;;;;;;;20.65;4.82;;;8.60;99.90;;;;;;4955033;28;20043;-79
2023/12/23 05:33:39;;;;;;;17.55;4.90;;;8.60;99.90;;;;;;4954108;29;20478;-77
2023/12/23 05:36:08;;;;;;;24.35;4.95;;;8.70;99.90;;;;;;4955795;29;20372;-77
2023/12/23 05:38:34;;;;;;;18.83;3.63;;;8.80;99.90;;;;;;4954923;28;20046;-79
2023/12/23 05:41:00;;;;;;;24.63;3.92;;;8.80;99.90;;;;;;4955577;28;20051;-77
2023/12/23 05:43:26;;;;;;;21.30;4.35;;;8.80;99.90;;;;;;4954070;29;20109;-77
2023/12/23 05:45:52;;;;;;;19.60;4.75;;;8.80;99.90;;;;;;4938773;29;20039;-78
2023/12/23 05:48:17;;;;;;;24.77;5.00;;;8.90;99.90;;;;;;4954025;29;20043;-77
2023/12/23 05:50:43;;;;;;;27.05;5.18;;;8.90;99.90;;;;;;4953622;28;20435;-76
2023/12/23 05:53:09;;;;;;;19.73;3.95;;;8.90;99.90;;;;;;4953586;29;20067;-77
2023/12/23 05:55:34;;;;;;;24.42;5.05;;;8.90;99.90;;;;;;4953501;29;20046;-76
2023/12/23 05:58:00;;;;;;;36.17;6.00;;;8.80;99.90;;;;;;4953565;29;20067;-76
2023/12/23 06:03:00;;;;;;;25.40;4.90;;;8.80;99.90;;;;;;5091698;28;20490;-78
2023/12/23 06:05:25;;;;;;;31.33;5.07;;;8.90;99.90;;;;;;5072828;28;20044;-79
2023/12/23 06:07:51;;;;;;;23.77;5.38;;;8.90;99.90;;;;;;5089489;28;20044;-78
2023/12/23 06:10:17;;;;;;;16.08;3.95;;;8.90;99.90;;;;;;5072586;28;20091;-78
2023/12/23 06:12:42;;;;;;;27.50;5.53;;;8.90;99.90;;;;;;5090902;28;20036;-78
2023/12/23 06:15:09;;;;;;;24.65;4.68;;;8.90;99.90;;;;;;5089691;28;20032;-76
2023/12/23 06:17:35;;;;;;;28.17;4.55;;;9.00;99.90;;;;;;5089284;28;20040;-78
2023/12/23 06:20:01;;;;;;;29.45;5.03;;;9.00;99.90;;;;;;5089680;28;20074;-77
2023/12/23 06:22:26;;;;;;;32.75;5.28;;;9.00;99.90;;;;;;5089099;28;20036;-77
2023/12/23 06:24:52;;;;;;;27.40;6.28;;;8.90;99.90;;;;;;5089236;28;20384;-76
2023/12/23 06:27:18;;;;;;;32.17;5.82;;;9.00;99.90;;;;;;5089158;28;20036;-76
2023/12/23 06:29:43;;;;;;;29.80;5.63;;;9.00;99.90;;;;;;5089084;28;20036;-78
2023/12/23 06:32:09;;;;;;;31.63;6.18;;;9.10;99.90;;;;;;5089010;28;20131;-77
2023/12/23 06:34:35;;;;;;;31.77;5.22;;;9.10;99.90;;;;;;5089034;28;20040;-79
2023/12/23 06:37:00;;;;;;;22.60;4.95;;;9.10;99.90;;;;;;5089246;28;20256;-75
2023/12/23 06:39:26;;;;;;;31.25;5.55;;;9.10;99.90;;;;;;5072006;28;20131;-77
2023/12/23 06:41:51;;;;;;;27.55;4.80;;;9.10;99.90;;;;;;5089923;28;20051;-78
2023/12/23 06:44:17;;;;;;;29.90;5.20;;;9.20;99.90;;;;;;5088823;28;20090;-77
2023/12/23 06:46:43;;;;;;;27.10;4.78;;;9.20;99.90;;;;;;5090332;28;20075;-78
2023/12/23 06:49:08;;;;;;;29.20;4.75;;;9.10;99.90;;;;;;5090167;28;20502;-77
2023/12/23 06:51:34;;;;;;;25.90;4.70;;;9.10;99.90;;;;;;5088587;28;20047;-74
2023/12/23 06:53:59;;;;;;;23.73;5.20;;;9.20;99.90;;;;;;5090149;28;20038;-77
2023/12/23 06:56:25;;;;;;;27.70;4.38;;;9.20;99.90;;;;;;5088579;28;20040;-78
2023/12/23 06:58:51;;;;;;;29.38;4.50;;;9.20;99.90;;;;;;5088588;28;20040;-76
2023/12/23 07:01:16;;;;;;;25.48;4.95;;;9.20;99.90;;;;;;5088207;28;20094;-75
2023/12/23 07:03:42;;;;;;;27.58;4.68;;;9.20;99.90;;;;;;5088476;28;20035;-77
2023/12/23 07:06:12;;;;;;;17.85;4.18;;;9.20;99.90;;;;;;5089602;28;20036;-76
2023/12/23 07:08:38;;;;;;;18.27;4.22;;;9.20;99.90;;;;;;5088358;28;20115;-76
2023/12/23 07:11:03;;;;;;;21.40;3.90;;;9.20;99.90;;;;;;5089332;28;20083;-76
2023/12/23 07:13:29;;;;;;;28.65;4.63;;;9.20;99.90;;;;;;5079662;28;20372;-75
2023/12/23 07:15:55;;;;;;;27.67;5.05;;;9.20;99.90;;;;;;5075055;28;20036;-76
2023/12/23 07:18:20;;;;;;;20.38;4.72;;;9.20;99.90;;;;;;5075963;28;20072;-77
2023/12/23 07:20:47;;;;;;;29.90;5.82;;;9.30;99.90;;;;;;5076067;28;20062;-75
2023/12/23 07:23:13;;;;;;;22.13;4.38;;;9.30;99.90;;;;;;5074556;28;20043;-76
2023/12/23 07:25:39;;;;;;;23.73;4.30;;;9.20;99.90;;;;;;5058169;28;20396;-77
2023/12/23 07:28:05;;;;;;;35.33;5.50;;;9.30;99.90;;;;;;5074534;28;20040;-75
2023/12/23 07:30:30;;;;;;;23.45;4.30;;;9.30;99.90;;;;;;5074412;28;20044;-76
2023/12/23 07:32:56;;;;;;;31.02;4.93;;;9.30;99.90;;;;;;5074403;28;20051;-75
2023/12/23 07:35:22;;;;;;;37.40;5.88;;;9.30;99.90;;;;;;5075866;28;20146;-76
2023/12/23 07:37:47;;;;;;;32.50;5.45;;;9.30;99.90;;;;;;5075887;28;20120;-77
2023/12/23 07:40:13;;;;;;;31.55;5.65;;;9.30;99.90;;;;;;5074694;28;20044;-76
2023/12/23 07:42:39;;;;;;;35.15;5.13;;;9.40;99.90;;;;;;5074146;28;20047;-77
2023/12/23 07:45:05;;;;;;;25.15;4.32;;;9.30;99.90;;;;;;5074150;28;20047;-75
2023/12/23 07:47:31;;;;;;;22.42;4.97;;;9.30;99.90;;;;;;5074151;28;20036;-76
2023/12/23 07:49:56;;;;;;;22.48;4.35;;;9.40;99.90;;;;;;5074349;28;20041;-76
2023/12/23 07:52:22;;;;;;;26.90;4.70;;;9.40;99.90;;;;;;5075497;28;20444;-77
2023/12/23 07:54:48;;;;;;;24.25;4.25;;;9.40;99.90;;;;;;5074226;28;20041;-76
2023/12/23 07:57:13;;;;;;;30.75;4.40;;;9.30;99.90;;;;;;5073956;28;20400;-74
2023/12/23 07:59:39;;;;;;;31.77;5.13;;;9.30;99.90;;;;;;5064253;28;20068;-74
2023/12/23 08:02:14;;;;;;;25.38;4.97;;;9.30;99.90;;;;;;5055019;28;20462;-77
2023/12/23 08:04:41;;;;;;;29.67;5.03;;;9.40;99.90;;;;;;5037227;28;20105;-74
2023/12/23 08:07:06;;;;;;;22.63;4.68;;;9.30;99.90;;;;;;5053808;28;20037;-75
2023/12/23 08:09:32;;;;;;;25.38;5.07;;;9.40;99.90;;;;;;5036283;28;20124;-77
2023/12/23 08:11:57;;;;;;;31.13;4.50;;;9.30;99.90;;;;;;5053876;28;20048;-77
2023/12/23 08:14:23;;;;;;;30.15;4.88;;;9.30;99.90;;;;;;5053573;28;20087;-76
2023/12/23 08:16:49;;;;;;;22.50;3.85;;;9.30;99.90;;;;;;5055042;28;20045;-77
2023/12/23 08:19:15;;;;;;;22.88;4.72;;;9.40;99.90;;;;;;5037095;28;20041;-76
2023/12/23 08:21:40;;;;;;;30.27;4.72;;;9.40;99.90;;;;;;5053663;28;20103;-75
2023/12/23 08:24:06;;;;;;;29.20;4.97;;;9.40;99.90;;;;;;5053134;28;20045;-76
2023/12/23 08:26:33;;;;;;;27.75;4.45;;;9.40;99.90;;;;;;5053536;28;20555;-75
2023/12/23 08:28:59;;;;;;;28.52;5.30;;;9.40;99.90;;;;;;5054359;28;20044;-78
2023/12/23 08:31:25;;;;;;;31.73;5.65;;;9.50;99.90;;;;;;5053172;28;20036;-76
2023/12/23 08:33:53;;;;;;;21.95;3.88;;;9.50;99.90;;;;;;5054696;28;20052;-76
2023/12/23 08:36:19;;;;;;;20.17;3.42;;;9.50;99.90;;;;;;5036390;28;20477;-76
2023/12/23 08:38:44;;;;;;;20.58;5.60;;;9.50;99.90;;;;;;5054266;28;20055;-76
2023/12/23 08:41:10;;;;;;;19.73;3.50;;;9.50;99.90;;;;;;5054328;28;20044;-75
2023/12/23 08:43:36;;;;;;;23.25;3.67;;;9.60;99.90;;;;;;5054297;28;20040;-81
2023/12/23 08:46:06;;;;;;;25.33;4.68;;;9.60;99.90;;;;;;5054673;28;20499;-76
2023/12/23 08:48:32;;;;;;;26.75;4.53;;;9.70;99.90;;;;;;5052530;28;20076;-73
2023/12/23 08:50:57;;;;;;;18.67;3.90;;;9.70;99.90;;;;;;5051259;28;20087;-75
2023/12/23 08:53:23;;;;;;;22.98;4.15;;;9.70;99.90;;;;;;5052506;28;20496;-75
2023/12/23 08:55:49;;;;;;;21.13;4.60;;;9.70;99.90;;;;;;5053881;28;20071;-73
2023/12/23 08:58:15;;;;;;;18.38;3.42;;;9.80;99.90;;;;;;5053067;28;20041;-75
2023/12/23 09:00:41;;;;;;;17.58;3.47;;;9.90;99.90;;;;;;5052492;28;20080;-76
2023/12/23 09:03:06;;;;;;;20.73;3.60;;;9.90;99.90;;;;;;5054293;28;20069;-74
2023/12/23 09:05:32;;;;;;;17.65;4.03;;;10.00;99.90;;;;;;5054100;28;20368;-74
2023/12/23 09:07:58;;;;;;;18.42;2.95;;;10.00;99.90;;;;;;5052584;28;20503;-73
2023/12/23 09:10:23;;;;;;;15.75;3.25;;;10.00;99.90;;;;;;5053996;28;20041;-74
2023/12/23 09:12:49;;;;;;;24.75;3.47;;;10.00;99.90;;;;;;5053758;28;20040;-75
2023/12/23 09:15:15;;;;;;;11.57;2.88;;;10.00;99.90;;;;;;5052738;28;20051;-75
2023/12/23 09:17:40;;;;;;;17.00;3.53;;;10.00;99.90;;;;;;5054269;28;20048;-74
2023/12/23 09:20:07;;;;;;;16.23;3.00;;;10.10;99.90;;;;;;5052366;28;20041;-74
2023/12/23 09:22:32;;;;;;;18.13;2.72;;;10.00;99.90;;;;;;5052238;28;20041;-76
2023/12/23 09:24:58;;;;;;;24.38;4.47;;;10.10;99.90;;;;;;5052236;28;20511;-74
2023/12/23 09:27:24;;;;;;;26.75;4.20;;;10.00;99.90;;;;;;5053542;28;20032;-74
2023/12/23 09:29:49;;;;;;;12.85;3.55;;;10.00;99.90;;;;;;5053732;28;20036;-75
2023/12/23 09:32:15;;;;;;;22.27;3.63;;;10.00;99.90;;;;;;5052099;28;20050;-75
2023/12/23 09:34:41;;;;;;;18.08;2.70;;;10.10;99.90;;;;;;5035578;28;20052;-74
2023/12/23 09:37:06;;;;;;;22.27;3.50;;;10.00;99.90;;;;;;5053117;28;20072;-75
2023/12/23 09:39:32;;;;;;;21.48;4.22;;;10.00;99.90;;;;;;5053704;28;20492;-75
2023/12/23 09:41:59;;;;;;;20.48;3.13;;;10.00;99.90;;;;;;5051942;28;20053;-77
2023/12/23 09:44:25;;;;;;;24.17;3.55;;;10.00;99.90;;;;;;5053544;28;20033;-75
2023/12/23 09:46:51;;;;;;;17.75;2.80;;;10.00;99.90;;;;;;5051991;28;20508;-74
2023/12/23 09:49:16;;;;;;;16.50;3.53;;;10.00;99.90;;;;;;5053494;28;20033;-74
2023/12/23 09:51:44;;;;;;;24.58;3.63;;;10.10;99.90;;;;;;5053046;28;20040;-74
2023/12/23 09:54:17;;;;;;;22.60;2.97;;;10.00;99.90;;;;;;5035411;28;20049;-80
2023/12/23 09:56:43;;;;;;;21.40;3.53;;;10.10;99.90;;;;;;5052394;28;20066;-77
2023/12/23 09:59:09;;;;;;;19.42;3.55;;;10.00;99.90;;;;;;5053978;28;20037;-77
2023/12/23 10:01:37;;;;;;;14.65;2.63;;;10.10;99.90;;;;;;5053345;28;20091;-78
2023/12/23 10:04:03;;;;;;;16.33;2.85;;;10.20;99.90;;;;;;5052335;28;20037;-75
2023/12/23 10:06:29;;;;;;;21.58;3.28;;;10.10;99.90;;;;;;5051911;28;20048;-79
2023/12/23 10:09:08;;;;;;;18.95;3.08;;;10.00;99.90;;;;;;5051931;28;20033;-77
2023/12/23 10:11:34;;;;;;;19.42;3.70;;;10.10;99.90;;;;;;5052753;28;20044;-78
2023/12/23 10:14:00;;;;;;;16.02;4.20;;;10.10;99.90;;;;;;5053382;28;20037;-76
2023/12/23 10:16:25;;;;;;;18.75;3.83;;;10.10;99.90;;;;;;5053306;28;20041;-77
2023/12/23 10:18:51;;;;;;;26.08;3.22;;;10.10;99.90;;;;;;5035877;28;20527;-78
2023/12/23 10:21:19;;;;;;;17.60;3.10;;;10.20;99.90;;;;;;5051689;28;20497;-76
2023/12/23 10:23:45;;;;;;;19.50;3.70;;;10.10;99.90;;;;;;5052969;28;20047;-78
2023/12/23 10:26:14;;;;;;;24.50;3.55;;;10.20;99.90;;;;;;5053131;28;20111;-80
2023/12/23 10:28:47;;;;;;;22.55;3.80;;;10.20;99.90;;;;;;5053168;28;20388;-79
2023/12/23 10:31:13;;;;;;;19.92;2.78;;;10.20;99.90;;;;;;5052887;28;20036;-78
2023/12/23 10:33:54;;;;;;;20.70;3.35;;;10.20;99.90;;;;;;5059580;28;20384;-80
2023/12/23 10:36:20;;;;;;;21.00;3.20;;;10.10;99.90;;;;;;5072131;28;20049;-79
2023/12/23 10:38:51;;;;;;;22.90;3.53;;;10.10;99.90;;;;;;5070984;28;20423;-76
2023/12/23 10:41:46;;;;;;;15.60;3.10;;;10.10;99.90;;;;;;5072536;28;20040;-78
2023/12/23 10:44:12;;;;;;;19.92;2.90;;;10.10;99.90;;;;;;5071620;28;20167;-79
2023/12/23 10:46:40;;;;;;;17.60;3.25;;;10.10;99.90;;;;;;5071627;28;20502;-77
2023/12/23 10:49:07;;;;;;;21.60;4.35;;;10.00;99.90;;;;;;5075482;28;20076;-79
2023/12/23 10:51:33;;;;;;;14.15;3.20;;;10.10;99.90;;;;;;5076627;28;20044;-78
2023/12/23 10:54:02;;;;;;;20.08;3.08;;;10.00;99.90;;;;;;5058541;28;20033;-79
2023/12/23 10:56:29;;;;;;;27.38;3.83;;;10.10;99.90;;;;;;5076332;28;20094;-79
2023/12/23 10:58:56;;;;;;;16.55;3.15;;;10.10;99.90;;;;;;5076506;28;20045;-78
2023/12/23 11:01:23;;;;;;;15.40;2.95;;;10.00;99.90;;;;;;5075880;28;20060;-80
2023/12/23 11:03:51;;;;;;;24.73;4.13;;;10.00;99.90;;;;;;5074955;28;20063;-80
2023/12/23 11:06:18;;;;;;;20.45;3.50;;;10.00;99.90;;;;;;5058244;28;20039;-79
2023/12/23 11:08:46;;;;;;;20.13;3.53;;;10.00;99.90;;;;;;5076894;28;20040;-80
2023/12/23 11:11:13;;;;;;;15.18;2.78;;;9.90;99.90;;;;;;5076261;28;20115;-78
2023/12/23 11:13:38;;;;;;;18.38;3.30;;;9.90;99.90;;;;;;5057974;28;20089;-77
2023/12/23 11:16:10;;;;;;;15.80;3.58;;;9.80;99.90;;;;;;5075940;28;20040;-79
2023/12/23 11:18:37;;;;;;;17.02;3.40;;;9.80;99.90;;;;;;5058253;28;20431;-79
2023/12/23 11:21:13;;;;;;;22.75;2.97;;;9.80;99.90;;;;;;5075994;28;20049;-78
2023/12/23 11:23:39;;;;;;;17.75;3.03;;;9.80;99.90;;;;;;5074909;28;20380;-80
2023/12/23 11:26:04;;;;;;;24.73;4.03;;;9.80;99.90;;;;;;5076146;28;20043;-78
2023/12/23 11:28:34;;;;;;;17.42;3.03;;;9.90;99.90;;;;;;5074555;28;20484;-79
2023/12/23 11:31:00;;;;;;;20.48;4.43;;;9.90;99.90;;;;;;5075939;28;20041;-78
2023/12/23 11:33:29;;;;;;;24.40;3.15;;;10.00;99.90;;;;;;5074662;28;20537;-78
2023/12/23 11:35:59;;;;;;;22.98;3.33;;;10.10;99.90;;;;;;5074370;28;20045;-78
2023/12/23 11:38:43;;;;;;;19.10;2.92;;;10.10;99.90;;;;;;5074316;28;20045;-81
2023/12/23 11:41:10;;;;;;;26.27;3.45;;;10.10;99.90;;;;;;5074433;28;20404;-80
2023/12/23 11:43:36;;;;;;;16.60;2.67;;;10.10;99.90;;;;;;5074278;28;20044;-80
2023/12/23 11:46:02;;;;;;;15.82;2.97;;;10.20;99.90;;;;;;5074229;28;20080;-79
2023/12/23 11:48:28;;;;;;;13.75;2.33;;;10.30;99.90;;;;;;5075477;28;20068;-80
2023/12/23 11:50:56;;;;;;;26.95;3.92;;;10.30;99.90;;;;;;5075478;28;20032;-79
2023/12/23 11:53:22;;;;;;;14.52;3.33;;;10.30;99.90;;;;;;5075747;28;20048;-78
2023/12/23 11:55:47;;;;;;;18.52;2.97;;;10.40;99.90;;;;;;5057532;28;20484;-79
2023/12/23 11:58:16;;;;;;;22.42;3.13;;;10.40;99.90;;;;;;5076124;28;20043;-80
2023/12/23 12:00:42;;;;;;;12.05;2.45;;;10.40;99.90;;;;;;5073483;28;20036;-78
2023/12/23 12:03:09;;;;;;;20.08;2.72;;;10.50;99.90;;;;;;5073811;28;20118;-79
2023/12/23 12:05:35;;;;;;;17.00;3.30;;;10.40;99.90;;;;;;5074316;28;20048;-78
2023/12/23 12:08:01;;;;;;;14.05;2.30;;;10.40;99.90;;;;;;5075217;28;20107;-79
2023/12/23 12:10:27;;;;;;;23.65;3.58;;;10.50;99.90;;;;;;5073596;28;20036;-77
2023/12/23 12:12:52;;;;;;;13.77;3.20;;;10.50;99.90;;;;;;5074954;28;20059;-79
2023/12/23 12:15:18;;;;;;;14.68;2.92;;;10.50;99.90;;;;;;5073884;28;20044;-78
2023/12/23 12:17:44;;;;;;;11.82;2.60;;;10.50;99.90;;;;;;5073380;28;20037;-79
2023/12/23 12:20:10;;;;;;;24.83;3.45;;;10.50;99.90;;;;;;5073362;28;20040;-81
2023/12/23 12:22:38;;;;;;;18.10;3.65;;;10.50;99.90;;;;;;5056772;28;20087;-80
2023/12/23 12:25:05;;;;;;;22.40;3.60;;;10.50;99.90;;;;;;5074828;28;20373;-77
2023/12/23 12:27:31;;;;;;;18.17;3.10;;;10.50;99.90;;;;;;5074710;28;20483;-80
2023/12/23 12:29:57;;;;;;;16.08;3.03;;;10.40;99.90;;;;;;5074640;28;20036;-79
2023/12/23 12:32:23;;;;;;;19.65;3.78;;;10.40;99.90;;;;;;5073520;28;20056;-78
2023/12/23 12:34:49;;;;;;;19.15;2.97;;;10.40;99.90;;;;;;5075045;28;20033;-79
2023/12/23 12:37:14;;;;;;;17.23;2.95;;;10.40;99.90;;;;;;5073305;28;20484;-79
2023/12/23 12:39:40;;;;;;;18.73;2.88;;;10.30;99.90;;;;;;5073898;28;20083;-79
2023/12/23 12:42:06;;;;;;;26.63;3.47;;;10.40;99.90;;;;;;5074130;28;20082;-80
2023/12/23 12:44:33;;;;;;;23.77;3.15;;;10.30;99.90;;;;;;5074114;28;20051;-77
2023/12/23 12:46:59;;;;;;;23.85;4.07;;;10.30;99.90;;;;;;5072855;28;20038;-77
2023/12/23 12:49:28;;;;;;;18.05;2.97;;;10.40;99.90;;;;;;5074211;28;20115;-78
2023/12/23 12:51:53;;;;;;;23.67;3.90;;;10.40;99.90;;;;;;5074262;28;20127;-78
2023/12/23 12:54:23;;;;;;;17.15;3.80;;;10.40;99.90;;;;;;5072720;28;20123;-76
2023/12/23 12:56:48;;;;;;;17.05;3.00;;;10.40;99.90;;;;;;5074327;28;20052;-78
2023/12/23 12:59:14;;;;;;;26.83;4.18;;;10.40;99.90;;;;;;5072603;28;20094;-79
2023/12/23 13:01:40;;;;;;;19.40;3.00;;;10.50;99.90;;;;;;5072417;28;20389;-77
2023/12/23 13:04:06;;;;;;;27.73;3.45;;;10.40;99.90;;;;;;5072939;28;20502;-78
2023/12/23 13:06:32;;;;;;;18.55;3.33;;;10.40;99.90;;;;;;5056180;28;20085;-78
2023/12/23 13:08:57;;;;;;;18.23;3.38;;;10.40;99.90;;;;;;5072483;28;20093;-78
2023/12/23 13:11:23;;;;;;;18.13;3.30;;;10.40;99.90;;;;;;5071907;28;20041;-81
2023/12/23 13:13:49;;;;;;;16.13;3.20;;;10.40;99.90;;;;;;5072586;28;20097;-79
2023/12/23 13:16:14;;;;;;;15.55;2.65;;;10.40;99.90;;;;;;5072313;28;20396;-78
2023/12/23 13:18:43;;;;;;;13.63;3.70;;;10.40;99.90;;;;;;5073598;28;20044;-77
2023/12/23 13:21:09;;;;;;;16.98;3.03;;;10.40;99.90;;;;;;5073490;28;20040;-77
2023/12/23 13:23:34;;;;;;;17.77;3.17;;;10.40;99.90;;;;;;5055653;28;20051;-77
2023/12/23 13:26:00;;;;;;;13.68;2.92;;;10.40;99.90;;;;;;5072178;28;20037;-77
2023/12/23 13:28:25;;;;;;;15.35;4.07;;;10.40;99.90;;;;;;5072115;28;20036;-78
2023/12/23 13:30:51;;;;;;;14.45;3.10;;;10.40;99.90;;;;;;5072275;28;20044;-78
2023/12/23 13:33:17;;;;;;;13.27;2.65;;;10.40;99.90;;;;;;5055618;28;20036;-77
2023/12/23 13:35:43;;;;;;;17.15;2.67;;;10.40;99.90;;;;;;5072321;28;20049;-80
2023/12/23 13:38:09;;;;;;;20.52;3.35;;;10.40;99.90;;;;;;5056048;28;20076;-80
2023/12/23 13:40:35;;;;;;;22.88;2.83;;;10.40;99.90;;;;;;5074190;28;20072;-79
2023/12/23 13:43:00;;;;;;;14.50;2.63;;;10.30;99.90;;;;;;5078884;28;20029;-76
2023/12/23 13:45:26;;;;;;;18.95;3.05;;;10.30;99.90;;;;;;5086440;28;20072;-73
2023/12/23 13:47:52;;;;;;;21.00;3.00;;;10.30;99.90;;;;;;5079220;28;20036;-78
2023/12/23 13:50:18;;;;;;;22.67;3.60;;;10.30;99.90;;;;;;5074261;28;20434;-78
2023/12/23 13:52:44;;;;;;;14.35;2.78;;;10.30;99.90;;;;;;5074393;28;20127;-80
2023/12/23 13:55:09;;;;;;;21.92;4.03;;;10.30;99.90;;;;;;5072298;28;20041;-80
2023/12/23 13:57:35;;;;;;;12.48;3.00;;;10.30;99.90;;;;;;5073293;28;20392;-78
2023/12/23 14:00:01;;;;;;;23.73;4.43;;;10.20;99.90;;;;;;5073527;28;20039;-81
2023/12/23 14:02:27;;;;;;;19.17;3.30;;;10.10;99.90;;;;;;5072912;28;20055;-77
2023/12/23 14:04:53;;;;;;;19.45;2.97;;;10.00;99.90;;;;;;5073394;28;20029;-80
2023/12/23 14:07:18;;;;;;;17.23;3.33;;;9.90;99.90;;;;;;5072122;28;20044;-79
2023/12/23 14:09:44;;;;;;;21.95;3.38;;;9.90;99.90;;;;;;5071945;28;20040;-80
2023/12/23 14:12:10;;;;;;;20.92;3.15;;;9.70;99.90;;;;;;5071758;28;20047;-81
2023/12/23 14:14:36;;;;;;;17.00;2.75;;;9.70;99.90;;;;;;5073484;28;20072;-82
2023/12/23 14:17:01;;;;;;;15.70;2.45;;;9.60;99.90;;;;;;5071938;28;20131;-80
2023/12/23 14:19:27;;;;;;;20.02;3.60;;;9.50;99.90;;;;;;5072381;28;20048;-75
2023/12/23 14:21:52;;;;;;;16.60;2.83;;;9.50;99.90;;;;;;5071569;28;20562;-78
2023/12/23 14:24:18;;;;;;;18.27;2.75;;;9.50;99.90;;;;;;5075069;28;20036;-78
2023/12/23 14:26:44;;;;;;;13.57;2.78;;;9.40;99.90;;;;;;5077305;28;20085;-79
2023/12/23 14:29:10;;;;;;;17.38;2.63;;;9.40;99.90;;;;;;5076157;28;20111;-76
2023/12/23 14:31:36;;;;;;;18.42;2.72;;;9.40;99.90;;;;;;5077280;28;20519;-76
2023/12/23 14:34:02;;;;;;;19.23;3.28;;;9.40;99.90;;;;;;5075812;28;20048;-77
2023/12/23 14:36:31;;;;;;;19.17;3.17;;;9.40;99.90;;;;;;5075640;28;20048;-76
2023/12/23 14:39:00;;;;;;;16.83;3.20;;;9.40;99.90;;;;;;5075422;28;20047;-78
2023/12/23 14:41:26;;;;;;;16.08;3.00;;;9.40;99.90;;;;;;5075198;28;20051;-76
2023/12/23 14:43:52;;;;;;;15.73;2.80;;;9.40;99.90;;;;;;5076940;28;20032;-80
2023/12/23 14:46:18;;;;;;;16.95;2.90;;;9.40;99.90;;;;;;5075671;28;20036;-75
2023/12/23 14:48:47;;;;;;;19.23;3.10;;;9.40;99.90;;;;;;5076699;28;20114;-73
2023/12/23 14:51:13;;;;;;;18.52;3.20;;;9.50;99.90;;;;;;5076330;28;20047;-77
2023/12/23 14:53:38;;;;;;;21.05;3.03;;;9.50;99.90;;;;;;5075488;28;20048;-76
2023/12/23 14:56:04;;;;;;;13.82;2.35;;;9.60;99.90;;;;;;5076602;28;20036;-78
2023/12/23 14:58:30;;;;;;;18.50;2.40;;;9.70;99.90;;;;;;5058631;28;20044;-77
2023/12/23 15:00:56;;;;;;;16.45;3.25;;;9.80;99.90;;;;;;5074965;28;20048;-76
2023/12/23 15:03:21;;;;;;;15.35;3.03;;;9.80;99.90;;;;;;5076172;28;20032;-75
2023/12/23 15:05:47;;;;;;;17.88;3.38;;;9.90;99.90;;;;;;5074950;28;20090;-75
2023/12/23 15:08:13;;;;;;;23.13;3.35;;;9.90;99.90;;;;;;5074867;28;20071;-76
2023/12/23 15:10:39;;;;;;;13.90;2.47;;;9.90;99.90;;;;;;5075904;28;20048;-76
2023/12/23 15:13:06;;;;;;;13.95;2.70;;;9.90;99.90;;;;;;5075991;28;20040;-76
2023/12/23 15:15:32;;;;;;;10.75;2.33;;;10.00;99.90;;;;;;5074985;28;20143;-74
2023/12/23 15:17:58;;;;;;;15.57;2.60;;;10.00;99.90;;;;;;5074666;28;20044;-75
2023/12/23 15:20:23;;;;;;;16.13;2.60;;;10.00;99.90;;;;;;5074874;28;20445;-74
2023/12/23 15:22:49;;;;;;;20.70;3.28;;;10.00;99.90;;;;;;5076086;28;20032;-76
2023/12/23 15:25:16;;;;;;;16.65;2.00;;;10.00;99.90;;;;;;5076321;28;20487;-76
2023/12/23 15:27:42;;;;;;;13.25;2.30;;;10.00;99.90;;;;;;5074416;28;20048;-75
2023/12/23 15:30:09;;;;;;;18.90;2.97;;;10.00;99.90;;;;;;5075679;28;20043;-76
2023/12/23 15:32:35;;;;;;;11.48;2.38;;;10.00;99.90;;;;;;5075860;28;20405;-75
2023/12/23 15:35:01;;;;;;;14.50;2.38;;;10.00;99.90;;;;;;5073884;28;20067;-76
2023/12/23 15:37:26;;;;;;;15.43;2.55;;;10.10;99.90;;;;;;5076016;28;20090;-75
2023/12/23 15:39:53;;;;;;;15.23;3.38;;;10.10;99.90;;;;;;5074206;28;20507;-75
2023/12/23 15:42:18;;;;;;;13.60;3.20;;;10.10;99.90;;;;;;5075312;28;20048;-75
2023/12/23 15:44:44;;;;;;;14.75;2.78;;;10.10;99.90;;;;;;5074389;28;20346;-75
2023/12/23 15:47:10;;;;;;;10.55;2.20;;;10.10;99.90;;;;;;5074111;28;20043;-74
2023/12/23 15:49:35;;;;;;;10.93;2.03;;;10.10;99.90;;;;;;5075607;28;20028;-75
2023/12/23 15:52:01;;;;;;;15.25;2.88;;;10.10;99.90;;;;;;5075265;28;20078;-76
2023/12/23 15:54:26;;;;;;;12.95;2.40;;;10.10;99.90;;;;;;5073992;28;20060;-75
2023/12/23 15:56:52;;;;;;;13.43;3.15;;;10.10;99.90;;;;;;5074120;28;20087;-74
2023/12/23 15:59:18;;;;;;;16.08;2.90;;;10.00;99.90;;;;;;5074211;28;20133;-75
2023/12/23 16:01:44;;;;;;;12.30;2.70;;;9.90;99.90;;;;;;5074958;28;20495;-76
2023/12/23 16:04:09;;;;;;;15.68;2.92;;;9.90;99.90;;;;;;5073865;28;20472;-75
2023/12/23 16:06:35;;;;;;;16.27;2.40;;;9.90;99.90;;;;;;5074097;28;20036;-75
2023/12/23 16:09:00;;;;;;;12.82;2.20;;;9.80;99.90;;;;;;5073851;28;20098;-75
2023/12/23 16:11:26;;;;;;;13.98;2.35;;;9.80;99.90;;;;;;5073524;28;20135;-77
2023/12/23 16:13:52;;;;;;;16.85;2.38;;;9.80;99.90;;;;;;5074963;28;20399;-75
2023/12/23 16:16:17;;;;;;;16.35;4.07;;;9.80;99.90;;;;;;5073920;28;20045;-74
2023/12/23 16:18:43;;;;;;;12.15;2.63;;;9.80;99.90;;;;;;5075059;28;20051;-74
2023/12/23 16:21:09;;;;;;;15.82;2.80;;;9.80;99.90;;;;;;5074905;28;20036;-75
2023/12/23 16:23:34;;;;;;;8.52;2.53;;;9.90;99.90;;;;;;5074789;28;20136;-74
2023/12/23 16:26:00;;;;;;;15.27;2.88;;;9.90;99.90;;;;;;5074965;28;20051;-76
2023/12/23 16:28:25;;;;;;;10.13;2.38;;;9.90;99.90;;;;;;5073345;28;20396;-75
2023/12/23 16:30:51;;;;;;;20.58;3.20;;;9.90;99.90;;;;;;5073196;28;20087;-75
2023/12/23 16:33:17;;;;;;;9.75;3.13;;;9.90;99.90;;;;;;5073477;28;20051;-75
2023/12/23 16:35:44;;;;;;;10.55;2.30;;;9.90;99.90;;;;;;5074548;28;20032;-75
2023/12/23 16:38:09;;;;;;;20.30;3.70;;;9.90;99.90;;;;;;5073420;28;20360;-75
2023/12/23 16:40:35;;;;;;;18.45;2.58;;;10.00;99.90;;;;;;5073214;28;20044;-75
2023/12/23 16:43:01;;;;;;;12.55;2.35;;;10.00;99.90;;;;;;5073112;28;20048;-75
2023/12/23 16:45:27;;;;;;;13.23;2.60;;;10.10;99.90;;;;;;5072522;28;20033;-75
2023/12/23 16:47:53;;;;;;;6.50;2.38;;;10.10;99.90;;;;;;5074438;28;20037;-76
2023/12/23 16:50:18;;;;;;;11.07;2.70;;;10.10;99.90;;;;;;5073129;28;20476;-76
2023/12/23 16:52:44;;;;;;;10.80;2.67;;;10.00;99.90;;;;;;5073044;28;20131;-76
2023/12/23 16:55:13;;;;;;;13.32;2.95;;;10.00;99.90;;;;;;5073066;28;20051;-75
2023/12/23 16:57:39;;;;;;;12.88;2.78;;;9.90;99.90;;;;;;5072831;28;20400;-76
2023/12/23 17:00:06;;;;;;;14.18;3.08;;;9.80;99.90;;;;;;5074280;28;20079;-75
2023/12/23 17:02:31;;;;;;;14.27;2.92;;;9.80;99.90;;;;;;5072634;28;20497;-75
2023/12/23 17:04:57;;;;;;;22.50;4.47;;;9.70;99.90;;;;;;5072904;28;20123;-76
2023/12/23 17:07:23;;;;;;;16.08;3.33;;;9.60;99.90;;;;;;5074154;28;20415;-77
2023/12/23 17:09:48;;;;;;;15.85;3.03;;;9.50;99.90;;;;;;5073838;28;20043;-77